sensor_id;sensor_type;location;lat;lon;timestamp;pressure;altitude;pressure_sealevel;temperature;humidity
19676;BME280;39539;52.202;9.876;2023-02-14T00:01:45;102865.22;;;0.43;100.00
19676;BME280;39539;52.202;9.876;2023-02-14T00:04:11;102870.47;;;0.43;100.00
19676;BME280;39539;52.202;9.876;2023-02-14T00:06:36;102875.34;;;0.34;100.00
19676;BME280;39539;52.202;9.876;2023-02-14T00:09:21;102866.22;;;0.25;100.00
19676;BME280;39539;52.202;9.876;2023-02-14T00:11:47;102864.31;;;0.29;100.00
19676;BME280;39539;52.202;9.876;2023-02-14T00:14:12;102862.53;;;0.29;100.00
19676;BME280;39539;52.202;9.876;2023-02-14T00:16:57;102865.91;;;0.31;100.00
19676;BME280;39539;52.202;9.876;2023-02-14T00:19:22;102863.44;;;0.60;100.00
19676;BME280;39539;52.202;9.876;2023-02-14T00:21:49;102877.75;;;0.99;100.00
19676;BME280;39539;52.202;9.876;2023-02-14T00:24:23;102867.09;;;1.02;100.00
19676;BME280;39539;52.202;9.876;2023-02-14T00:26:50;102877.78;;;1.13;100.00
19676;BME280;39539;52.202;9.876;2023-02-14T00:29:19;102871.63;;;1.14;100.00
19676;BME280;39539;52.202;9.876;2023-02-14T00:31:44;102869.03;;;1.14;100.00
19676;BME280;39539;52.202;9.876;2023-02-14T00:34:13;102880.06;;;1.19;100.00
19676;BME280;39539;52.202;9.876;2023-02-14T00:36:39;102866.47;;;1.12;100.00
19676;BME280;39539;52.202;9.876;2023-02-14T00:39:05;102863.84;;;1.12;100.00
19676;BME280;39539;52.202;9.876;2023-02-14T00:41:33;102872.56;;;1.27;100.00
19676;BME280;39539;52.202;9.876;2023-02-14T00:43:58;102878.56;;;1.15;100.00
19676;BME280;39539;52.202;9.876;2023-02-14T00:46:24;102875.72;;;1.04;100.00
19676;BME280;39539;52.202;9.876;2023-02-14T00:48:50;102877.53;;;0.87;100.00
19676;BME280;39539;52.202;9.876;2023-02-14T00:51:17;102885.78;;;0.65;100.00
19676;BME280;39539;52.202;9.876;2023-02-14T00:53:44;102883.38;;;0.47;100.00
19676;BME280;39539;52.202;9.876;2023-02-14T00:56:11;102869.28;;;0.33;100.00
19676;BME280;39539;52.202;9.876;2023-02-14T00:58:36;102877.03;;;0.19;100.00
19676;BME280;39539;52.202;9.876;2023-02-14T01:01:02;102877.72;;;0.22;100.00
19676;BME280;39539;52.202;9.876;2023-02-14T01:03:28;102879.22;;;0.11;100.00
19676;BME280;39539;52.202;9.876;2023-02-14T01:05:54;102871.13;;;-0.01;100.00
19676;BME280;39539;52.202;9.876;2023-02-14T01:08:19;102870.56;;;-0.06;100.00
19676;BME280;39539;52.202;9.876;2023-02-14T01:10:45;102867.34;;;-0.11;100.00
19676;BME280;39539;52.202;9.876;2023-02-14T01:13:12;102874.16;;;-0.08;100.00
19676;BME280;39539;52.202;9.876;2023-02-14T01:15:46;102876.25;;;-0.15;100.00
19676;BME280;39539;52.202;9.876;2023-02-14T01:18:13;102872.03;;;-0.17;100.00
19676;BME280;39539;52.202;9.876;2023-02-14T01:20:39;102867.91;;;-0.21;100.00
19676;BME280;39539;52.202;9.876;2023-02-14T01:23:04;102858.63;;;-0.27;100.00
19676;BME280;39539;52.202;9.876;2023-02-14T01:25:30;102869.72;;;-0.39;100.00
19676;BME280;39539;52.202;9.876;2023-02-14T01:27:56;102858.69;;;-0.44;100.00
19676;BME280;39539;52.202;9.876;2023-02-14T01:30:22;102865.91;;;-0.50;100.00
19676;BME280;39539;52.202;9.876;2023-02-14T01:32:48;102857.84;;;-0.62;100.00
19676;BME280;39539;52.202;9.876;2023-02-14T01:35:14;102865.28;;;-0.55;100.00
19676;BME280;39539;52.202;9.876;2023-02-14T01:37:39;102850.50;;;-0.72;100.00
19676;BME280;39539;52.202;9.876;2023-02-14T01:40:06;102859.00;;;-0.68;100.00
19676;BME280;39539;52.202;9.876;2023-02-14T01:42:34;102873.50;;;-0.62;100.00
19676;BME280;39539;52.202;9.876;2023-02-14T01:45:03;102872.78;;;-0.64;100.00
19676;BME280;39539;52.202;9.876;2023-02-14T01:47:33;102876.53;;;-0.70;100.00
19676;BME280;39539;52.202;9.876;2023-02-14T01:52:57;102870.88;;;-0.78;100.00
19676;BME280;39539;52.202;9.876;2023-02-14T01:55:29;102872.00;;;-0.66;100.00
19676;BME280;39539;52.202;9.876;2023-02-14T01:58:02;102874.16;;;-0.75;100.00
19676;BME280;39539;52.202;9.876;2023-02-14T02:00:29;102875.94;;;-0.75;100.00
19676;BME280;39539;52.202;9.876;2023-02-14T02:03:14;102864.22;;;-0.68;100.00
19676;BME280;39539;52.202;9.876;2023-02-14T02:05:52;102858.34;;;-0.72;100.00
19676;BME280;39539;52.202;9.876;2023-02-14T02:08:19;102864.56;;;-0.74;100.00
19676;BME280;39539;52.202;9.876;2023-02-14T02:10:45;102871.00;;;-0.64;100.00
19676;BME280;39539;52.202;9.876;2023-02-14T02:13:19;102870.50;;;-0.55;100.00
19676;BME280;39539;52.202;9.876;2023-02-14T02:17:08;102860.22;;;-0.58;100.00
19676;BME280;39539;52.202;9.876;2023-02-14T02:24:39;102861.31;;;-0.79;100.00
19676;BME280;39539;52.202;9.876;2023-02-14T02:30:57;102844.31;;;-0.86;100.00
19676;BME280;39539;52.202;9.876;2023-02-14T02:42:22;102826.53;;;-1.13;100.00
19676;BME280;39539;52.202;9.876;2023-02-14T02:48:23;102831.28;;;-1.21;100.00
19676;BME280;39539;52.202;9.876;2023-02-14T02:50:54;102832.03;;;-1.19;100.00
19676;BME280;39539;52.202;9.876;2023-02-14T02:53:51;102826.81;;;-1.19;100.00
19676;BME280;39539;52.202;9.876;2023-02-14T02:56:27;102833.88;;;-1.21;100.00
19676;BME280;39539;52.202;9.876;2023-02-14T02:59:19;102826.06;;;-1.21;100.00
19676;BME280;39539;52.202;9.876;2023-02-14T03:01:54;102835.41;;;-1.17;100.00
19676;BME280;39539;52.202;9.876;2023-02-14T03:04:21;102826.44;;;-1.11;100.00
19676;BME280;39539;52.202;9.876;2023-02-14T03:07:06;102823.81;;;-1.11;100.00
19676;BME280;39539;52.202;9.876;2023-02-14T03:09:53;102827.97;;;-1.07;100.00
19676;BME280;39539;52.202;9.876;2023-02-14T03:12:41;102819.13;;;-1.05;100.00
19676;BME280;39539;52.202;9.876;2023-02-14T03:18:18;102818.84;;;-0.99;100.00
19676;BME280;39539;52.202;9.876;2023-02-14T03:20:54;102825.91;;;-1.01;100.00
19676;BME280;39539;52.202;9.876;2023-02-14T03:23:26;102830.78;;;-0.95;100.00
19676;BME280;39539;52.202;9.876;2023-02-14T03:28:52;102819.34;;;-0.92;100.00
19676;BME280;39539;52.202;9.876;2023-02-14T03:34:17;102818.34;;;-0.89;100.00
19676;BME280;39539;52.202;9.876;2023-02-14T03:41:52;102815.13;;;-0.95;100.00
19676;BME280;39539;52.202;9.876;2023-02-14T03:44:21;102796.25;;;-1.00;100.00
19676;BME280;39539;52.202;9.876;2023-02-14T03:46:57;102800.88;;;-0.87;100.00
19676;BME280;39539;52.202;9.876;2023-02-14T03:49:28;102801.31;;;-0.97;100.00
19676;BME280;39539;52.202;9.876;2023-02-14T03:51:56;102796.41;;;-1.03;100.00
19676;BME280;39539;52.202;9.876;2023-02-14T03:54:25;102799.19;;;-1.06;100.00
19676;BME280;39539;52.202;9.876;2023-02-14T03:57:28;102800.78;;;-1.03;100.00
19676;BME280;39539;52.202;9.876;2023-02-14T03:59:52;102792.44;;;-1.10;100.00
19676;BME280;39539;52.202;9.876;2023-02-14T04:02:24;102796.09;;;-0.97;100.00
19676;BME280;39539;52.202;9.876;2023-02-14T04:04:51;102790.41;;;-1.05;100.00
19676;BME280;39539;52.202;9.876;2023-02-14T04:07:20;102794.13;;;-1.09;100.00
19676;BME280;39539;52.202;9.876;2023-02-14T04:09:46;102796.88;;;-0.95;100.00
19676;BME280;39539;52.202;9.876;2023-02-14T04:12:12;102785.50;;;-0.94;100.00
19676;BME280;39539;52.202;9.876;2023-02-14T04:14:38;102800.38;;;-0.78;100.00
19676;BME280;39539;52.202;9.876;2023-02-14T04:17:04;102797.75;;;-0.78;100.00
19676;BME280;39539;52.202;9.876;2023-02-14T04:19:48;102787.59;;;-0.67;100.00
19676;BME280;39539;52.202;9.876;2023-02-14T04:22:13;102786.06;;;-0.71;100.00
19676;BME280;39539;52.202;9.876;2023-02-14T04:24:39;102784.38;;;-0.72;100.00
19676;BME280;39539;52.202;9.876;2023-02-14T04:27:05;102787.66;;;-0.69;100.00
19676;BME280;39539;52.202;9.876;2023-02-14T04:29:45;102790.38;;;-0.70;100.00
19676;BME280;39539;52.202;9.876;2023-02-14T04:32:14;102790.78;;;-0.78;100.00
19676;BME280;39539;52.202;9.876;2023-02-14T04:34:39;102786.53;;;-0.96;100.00
19676;BME280;39539;52.202;9.876;2023-02-14T04:37:06;102779.91;;;-1.03;100.00
19676;BME280;39539;52.202;9.876;2023-02-14T04:39:31;102783.97;;;-0.98;100.00
19676;BME280;39539;52.202;9.876;2023-02-14T04:41:57;102791.75;;;-0.96;100.00
19676;BME280;39539;52.202;9.876;2023-02-14T04:44:22;102785.81;;;-1.00;100.00
19676;BME280;39539;52.202;9.876;2023-02-14T04:46:48;102793.63;;;-1.00;100.00
19676;BME280;39539;52.202;9.876;2023-02-14T04:49:14;102791.03;;;-1.00;100.00
19676;BME280;39539;52.202;9.876;2023-02-14T04:51:40;102778.91;;;-1.01;100.00
19676;BME280;39539;52.202;9.876;2023-02-14T04:54:05;102785.66;;;-0.97;100.00
19676;BME280;39539;52.202;9.876;2023-02-14T04:56:30;102785.75;;;-0.98;100.00
19676;BME280;39539;52.202;9.876;2023-02-14T04:58:56;102766.72;;;-1.18;100.00
19676;BME280;39539;52.202;9.876;2023-02-14T05:01:21;102789.69;;;-1.07;100.00
19676;BME280;39539;52.202;9.876;2023-02-14T05:03:47;102786.13;;;-1.06;100.00
19676;BME280;39539;52.202;9.876;2023-02-14T05:06:12;102791.03;;;-1.00;100.00
19676;BME280;39539;52.202;9.876;2023-02-14T05:08:37;102767.56;;;-1.17;100.00
19676;BME280;39539;52.202;9.876;2023-02-14T05:11:03;102785.19;;;-1.05;100.00
19676;BME280;39539;52.202;9.876;2023-02-14T05:13:31;102773.91;;;-1.05;100.00
19676;BME280;39539;52.202;9.876;2023-02-14T05:15:57;102778.53;;;-0.93;100.00
19676;BME280;39539;52.202;9.876;2023-02-14T05:18:22;102786.03;;;-0.87;100.00
19676;BME280;39539;52.202;9.876;2023-02-14T05:20:49;102775.59;;;-0.87;100.00
19676;BME280;39539;52.202;9.876;2023-02-14T05:23:15;102776.44;;;-0.86;100.00
19676;BME280;39539;52.202;9.876;2023-02-14T05:25:41;102782.72;;;-0.73;100.00
19676;BME280;39539;52.202;9.876;2023-02-14T05:28:07;102778.50;;;-0.76;100.00
19676;BME280;39539;52.202;9.876;2023-02-14T05:30:32;102778.94;;;-0.68;100.00
19676;BME280;39539;52.202;9.876;2023-02-14T05:32:59;102779.00;;;-0.69;100.00
19676;BME280;39539;52.202;9.876;2023-02-14T05:35:24;102768.72;;;-0.72;100.00
19676;BME280;39539;52.202;9.876;2023-02-14T05:37:50;102759.66;;;-0.82;100.00
19676;BME280;39539;52.202;9.876;2023-02-14T05:40:15;102775.16;;;-0.79;100.00
19676;BME280;39539;52.202;9.876;2023-02-14T05:42:44;102777.97;;;-1.00;100.00
19676;BME280;39539;52.202;9.876;2023-02-14T05:45:10;102756.50;;;-1.05;100.00
19676;BME280;39539;52.202;9.876;2023-02-14T05:47:35;102762.81;;;-1.09;100.00
19676;BME280;39539;52.202;9.876;2023-02-14T05:50:03;102772.78;;;-1.17;100.00
19676;BME280;39539;52.202;9.876;2023-02-14T05:52:29;102776.41;;;-1.37;100.00
19676;BME280;39539;52.202;9.876;2023-02-14T05:54:54;102765.91;;;-1.36;100.00
19676;BME280;39539;52.202;9.876;2023-02-14T05:57:19;102770.13;;;-1.33;100.00
19676;BME280;39539;52.202;9.876;2023-02-14T05:59:45;102782.00;;;-1.45;100.00
19676;BME280;39539;52.202;9.876;2023-02-14T06:02:10;102776.03;;;-1.47;100.00
19676;BME280;39539;52.202;9.876;2023-02-14T06:04:38;102761.59;;;-1.71;100.00
19676;BME280;39539;52.202;9.876;2023-02-14T06:07:03;102778.22;;;-1.56;100.00
19676;BME280;39539;52.202;9.876;2023-02-14T06:09:28;102775.09;;;-1.46;100.00
19676;BME280;39539;52.202;9.876;2023-02-14T06:11:54;102765.44;;;-1.61;100.00
19676;BME280;39539;52.202;9.876;2023-02-14T06:14:19;102769.34;;;-1.70;100.00
19676;BME280;39539;52.202;9.876;2023-02-14T06:16:44;102775.69;;;-1.75;100.00
19676;BME280;39539;52.202;9.876;2023-02-14T06:19:10;102776.69;;;-1.78;100.00
19676;BME280;39539;52.202;9.876;2023-02-14T06:21:35;102772.47;;;-1.81;100.00
19676;BME280;39539;52.202;9.876;2023-02-14T06:24:01;102755.72;;;-1.94;100.00
19676;BME280;39539;52.202;9.876;2023-02-14T06:26:26;102770.28;;;-1.90;100.00
19676;BME280;39539;52.202;9.876;2023-02-14T06:28:56;102778.09;;;-1.90;100.00
19676;BME280;39539;52.202;9.876;2023-02-14T06:31:22;102774.75;;;-1.92;100.00
19676;BME280;39539;52.202;9.876;2023-02-14T06:33:47;102774.88;;;-1.95;100.00
19676;BME280;39539;52.202;9.876;2023-02-14T06:36:12;102758.31;;;-1.94;100.00
19676;BME280;39539;52.202;9.876;2023-02-14T06:38:38;102757.13;;;-1.87;100.00
19676;BME280;39539;52.202;9.876;2023-02-14T06:41:08;102778.31;;;-1.75;100.00
19676;BME280;39539;52.202;9.876;2023-02-14T06:43:34;102784.13;;;-1.70;100.00
19676;BME280;39539;52.202;9.876;2023-02-14T06:46:00;102775.47;;;-1.71;100.00
19676;BME280;39539;52.202;9.876;2023-02-14T06:48:26;102773.41;;;-1.64;100.00
19676;BME280;39539;52.202;9.876;2023-02-14T06:50:51;102786.31;;;-1.61;100.00
19676;BME280;39539;52.202;9.876;2023-02-14T06:53:18;102792.25;;;-1.59;100.00
19676;BME280;39539;52.202;9.876;2023-02-14T06:55:44;102785.38;;;-1.60;100.00
19676;BME280;39539;52.202;9.876;2023-02-14T06:58:09;102790.59;;;-1.60;100.00
19676;BME280;39539;52.202;9.876;2023-02-14T07:00:35;102790.44;;;-1.57;100.00
19676;BME280;39539;52.202;9.876;2023-02-14T07:03:00;102792.72;;;-1.51;100.00
19676;BME280;39539;52.202;9.876;2023-02-14T07:05:25;102796.97;;;-1.48;100.00
19676;BME280;39539;52.202;9.876;2023-02-14T07:07:51;102799.97;;;-1.39;100.00
19676;BME280;39539;52.202;9.876;2023-02-14T07:10:16;102782.63;;;-1.40;100.00
19676;BME280;39539;52.202;9.876;2023-02-14T07:12:42;102801.03;;;-1.25;100.00
19676;BME280;39539;52.202;9.876;2023-02-14T07:15:09;102799.19;;;-1.23;100.00
19676;BME280;39539;52.202;9.876;2023-02-14T07:17:35;102794.75;;;-1.21;100.00
19676;BME280;39539;52.202;9.876;2023-02-14T07:20:01;102806.22;;;-1.08;100.00
19676;BME280;39539;52.202;9.876;2023-02-14T07:22:28;102799.78;;;-1.01;100.00
19676;BME280;39539;52.202;9.876;2023-02-14T07:24:53;102809.03;;;-0.44;100.00
19676;BME280;39539;52.202;9.876;2023-02-14T07:27:18;102813.75;;;0.44;100.00
19676;BME280;39539;52.202;9.876;2023-02-14T07:29:44;102829.88;;;1.97;100.00
19676;BME280;39539;52.202;9.876;2023-02-14T07:32:09;102819.50;;;3.15;100.00
19676;BME280;39539;52.202;9.876;2023-02-14T07:34:35;102823.16;;;4.48;100.00
19676;BME280;39539;52.202;9.876;2023-02-14T07:37:00;102807.16;;;5.99;96.91
19676;BME280;39539;52.202;9.876;2023-02-14T07:39:26;102779.38;;;6.16;86.71
19676;BME280;39539;52.202;9.876;2023-02-14T07:42:01;102775.91;;;5.61;87.23
19676;BME280;39539;52.202;9.876;2023-02-14T07:44:26;102756.53;;;4.24;93.49
19676;BME280;39539;52.202;9.876;2023-02-14T07:47:08;102758.06;;;4.50;98.46
19676;BME280;39539;52.202;9.876;2023-02-14T07:49:37;102754.06;;;4.91;97.11
19676;BME280;39539;52.202;9.876;2023-02-14T07:52:03;102761.59;;;5.75;94.18
19676;BME280;39539;52.202;9.876;2023-02-14T07:54:29;102776.28;;;8.06;81.63
19676;BME280;39539;52.202;9.876;2023-02-14T07:56:54;102762.53;;;10.45;70.99
19676;BME280;39539;52.202;9.876;2023-02-14T07:59:35;102746.13;;;12.60;62.26
19676;BME280;39539;52.202;9.876;2023-02-14T08:02:00;102731.25;;;13.30;57.70
19676;BME280;39539;52.202;9.876;2023-02-14T08:04:29;102711.50;;;14.16;54.89
19676;BME280;39539;52.202;9.876;2023-02-14T08:06:54;102703.53;;;14.84;52.70
19676;BME280;39539;52.202;9.876;2023-02-14T08:09:22;102708.03;;;15.13;50.93
19676;BME280;39539;52.202;9.876;2023-02-14T08:11:55;102696.44;;;15.63;50.15
19676;BME280;39539;52.202;9.876;2023-02-14T08:14:40;102689.81;;;16.30;48.75
19676;BME280;39539;52.202;9.876;2023-02-14T08:17:10;102674.63;;;16.37;47.97
19676;BME280;39539;52.202;9.876;2023-02-14T08:19:37;102666.69;;;16.23;47.58
19676;BME280;39539;52.202;9.876;2023-02-14T08:22:03;102658.66;;;15.58;48.00
19676;BME280;39539;52.202;9.876;2023-02-14T08:24:29;102653.34;;;15.65;48.82
19676;BME280;39539;52.202;9.876;2023-02-14T08:26:55;102619.97;;;14.73;49.65
19676;BME280;39539;52.202;9.876;2023-02-14T08:29:32;102632.63;;;12.89;54.40
19676;BME280;39539;52.202;9.876;2023-02-14T08:32:04;102635.97;;;12.35;56.50
19676;BME280;39539;52.202;9.876;2023-02-14T08:34:45;102625.50;;;11.68;59.38
19676;BME280;39539;52.202;9.876;2023-02-14T08:37:19;102630.47;;;11.63;60.08
19676;BME280;39539;52.202;9.876;2023-02-14T08:39:44;102632.69;;;11.09;61.20
19676;BME280;39539;52.202;9.876;2023-02-14T08:42:10;102627.84;;;10.09;65.69
19676;BME280;39539;52.202;9.876;2023-02-14T08:44:39;102615.66;;;9.45;69.59
19676;BME280;39539;52.202;9.876;2023-02-14T08:47:14;102623.97;;;9.60;70.12
19676;BME280;39539;52.202;9.876;2023-02-14T08:49:39;102619.31;;;9.44;71.71
19676;BME280;39539;52.202;9.876;2023-02-14T08:52:05;102622.84;;;9.17;74.04
19676;BME280;39539;52.202;9.876;2023-02-14T08:54:30;102630.75;;;9.80;72.83
19676;BME280;39539;52.202;9.876;2023-02-14T08:56:56;102630.75;;;8.99;76.19
19676;BME280;39539;52.202;9.876;2023-02-14T08:59:22;102621.38;;;9.05;76.34
19676;BME280;39539;52.202;9.876;2023-02-14T09:01:48;102620.13;;;8.71;79.05
19676;BME280;39539;52.202;9.876;2023-02-14T09:04:14;102632.69;;;8.42;83.66
19676;BME280;39539;52.202;9.876;2023-02-14T09:06:39;102625.72;;;8.12;86.37
19676;BME280;39539;52.202;9.876;2023-02-14T09:09:05;102630.38;;;7.90;87.34
19676;BME280;39539;52.202;9.876;2023-02-14T09:11:32;102632.97;;;8.09;90.21
19676;BME280;39539;52.202;9.876;2023-02-14T09:13:57;102640.44;;;8.90;85.37
19676;BME280;39539;52.202;9.876;2023-02-14T09:16:24;102633.81;;;8.29;86.79
19676;BME280;39539;52.202;9.876;2023-02-14T09:18:52;102633.94;;;9.03;83.42
19676;BME280;39539;52.202;9.876;2023-02-14T09:21:23;102614.16;;;8.97;83.01
19676;BME280;39539;52.202;9.876;2023-02-14T09:23:52;102623.91;;;9.24;80.49
19676;BME280;39539;52.202;9.876;2023-02-14T09:26:18;102612.69;;;9.30;83.11
19676;BME280;39539;52.202;9.876;2023-02-14T09:28:56;102629.22;;;10.66;76.24
19676;BME280;39539;52.202;9.876;2023-02-14T09:31:23;102632.13;;;11.80;72.15
19676;BME280;39539;52.202;9.876;2023-02-14T09:33:52;102627.06;;;12.98;66.73
19676;BME280;39539;52.202;9.876;2023-02-14T09:36:17;102615.94;;;13.26;64.98
19676;BME280;39539;52.202;9.876;2023-02-14T09:38:43;102610.94;;;12.92;66.22
19676;BME280;39539;52.202;9.876;2023-02-14T09:42:02;102601.97;;;12.76;66.42
19676;BME280;39539;52.202;9.876;2023-02-14T09:44:12;102599.03;;;11.66;69.31
19676;BME280;39539;52.202;9.876;2023-02-14T09:46:45;102597.75;;;11.04;74.39
19676;BME280;39539;52.202;9.876;2023-02-14T09:49:14;102594.88;;;10.89;75.94
19676;BME280;39539;52.202;9.876;2023-02-14T09:51:46;102596.66;;;10.38;74.37
19676;BME280;39539;52.202;9.876;2023-02-14T09:54:17;102592.66;;;10.16;76.75
19676;BME280;39539;52.202;9.876;2023-02-14T09:56:56;102599.09;;;10.05;76.62
19676;BME280;39539;52.202;9.876;2023-02-14T09:59:38;102597.16;;;10.15;77.02
19676;BME280;39539;52.202;9.876;2023-02-14T10:05:16;102602.88;;;10.54;77.19
19676;BME280;39539;52.202;9.876;2023-02-14T10:11:02;102610.03;;;11.63;76.79
19676;BME280;39539;52.202;9.876;2023-02-14T10:16:23;102605.38;;;13.01;71.78
19676;BME280;39539;52.202;9.876;2023-02-14T10:19:20;102600.03;;;12.62;72.98
19676;BME280;39539;52.202;9.876;2023-02-14T10:24:25;102592.22;;;11.72;80.44
19676;BME280;39539;52.202;9.876;2023-02-14T10:26:55;102581.72;;;10.79;86.65
19676;BME280;39539;52.202;9.876;2023-02-14T10:29:27;102596.00;;;10.44;89.78
19676;BME280;39539;52.202;9.876;2023-02-14T10:32:12;102570.63;;;9.71;94.04
19676;BME280;39539;52.202;9.876;2023-02-14T10:34:49;102597.94;;;9.63;95.67
19676;BME280;39539;52.202;9.876;2023-02-14T10:37:31;102605.78;;;9.73;94.42
19676;BME280;39539;52.202;9.876;2023-02-14T10:43:08;102600.38;;;10.01;91.94
19676;BME280;39539;52.202;9.876;2023-02-14T10:48:36;102604.28;;;10.15;91.93
19676;BME280;39539;52.202;9.876;2023-02-14T10:58:49;102576.72;;;10.16;91.50
19676;BME280;39539;52.202;9.876;2023-02-14T11:01:17;102579.75;;;10.47;91.31
19676;BME280;39539;52.202;9.876;2023-02-14T11:04:04;102578.16;;;10.62;92.12
19676;BME280;39539;52.202;9.876;2023-02-14T11:06:33;102585.03;;;10.73;92.85
19676;BME280;39539;52.202;9.876;2023-02-14T11:08:58;102577.72;;;10.83;93.93
19676;BME280;39539;52.202;9.876;2023-02-14T11:16:44;102565.78;;;10.95;92.43
19676;BME280;39539;52.202;9.876;2023-02-14T11:21:43;102553.34;;;10.96;89.51
19676;BME280;39539;52.202;9.876;2023-02-14T11:24:36;102549.97;;;10.86;96.06
19676;BME280;39539;52.202;9.876;2023-02-14T11:27:16;102546.19;;;10.96;92.00
19676;BME280;39539;52.202;9.876;2023-02-14T11:29:47;102545.88;;;10.49;89.89
19676;BME280;39539;52.202;9.876;2023-02-14T11:32:30;102543.31;;;10.73;91.47
19676;BME280;39539;52.202;9.876;2023-02-14T11:35:05;102550.63;;;10.79;91.56
19676;BME280;39539;52.202;9.876;2023-02-14T11:37:53;102542.19;;;10.84;90.69
19676;BME280;39539;52.202;9.876;2023-02-14T11:40:39;102541.31;;;10.84;91.15
19676;BME280;39539;52.202;9.876;2023-02-14T11:45:42;102545.66;;;10.85;94.14
19676;BME280;39539;52.202;9.876;2023-02-14T11:48:27;102538.16;;;10.80;92.54
19676;BME280;39539;52.202;9.876;2023-02-14T11:51:27;102535.66;;;10.87;88.99
19676;BME280;39539;52.202;9.876;2023-02-14T11:53:57;102533.66;;;10.81;93.24
19676;BME280;39539;52.202;9.876;2023-02-14T11:56:43;102514.03;;;10.65;90.87
19676;BME280;39539;52.202;9.876;2023-02-14T11:59:11;102521.50;;;10.70;90.31
19676;BME280;39539;52.202;9.876;2023-02-14T12:01:44;102522.00;;;10.65;91.71
19676;BME280;39539;52.202;9.876;2023-02-14T12:04:23;102515.31;;;10.61;90.56
19676;BME280;39539;52.202;9.876;2023-02-14T12:07:13;102517.47;;;10.57;89.00
19676;BME280;39539;52.202;9.876;2023-02-14T12:09:42;102509.78;;;10.46;90.35
19676;BME280;39539;52.202;9.876;2023-02-14T12:12:25;102502.00;;;10.45;89.78
19676;BME280;39539;52.202;9.876;2023-02-14T12:14:51;102486.66;;;10.39;88.27
19676;BME280;39539;52.202;9.876;2023-02-14T12:17:24;102497.38;;;10.63;87.66
19676;BME280;39539;52.202;9.876;2023-02-14T12:20:13;102494.84;;;10.45;87.52
19676;BME280;39539;52.202;9.876;2023-02-14T12:22:49;102483.13;;;10.30;88.64
19676;BME280;39539;52.202;9.876;2023-02-14T12:25:23;102473.41;;;10.47;89.39
19676;BME280;39539;52.202;9.876;2023-02-14T12:27:56;102464.44;;;10.48;89.68
19676;BME280;39539;52.202;9.876;2023-02-14T12:30:24;102459.66;;;10.60;87.77
19676;BME280;39539;52.202;9.876;2023-02-14T12:32:53;102463.47;;;10.57;90.06
19676;BME280;39539;52.202;9.876;2023-02-14T12:44:24;102445.88;;;10.72;87.57
19676;BME280;39539;52.202;9.876;2023-02-14T12:47:19;102447.22;;;10.68;87.94
19676;BME280;39539;52.202;9.876;2023-02-14T12:53:23;102434.56;;;10.62;90.38
19676;BME280;39539;52.202;9.876;2023-02-14T13:04:31;102420.13;;;10.97;85.13
19676;BME280;39539;52.202;9.876;2023-02-14T13:12:34;102405.66;;;11.00;85.73
19676;BME280;39539;52.202;9.876;2023-02-14T13:15:27;102407.34;;;10.93;87.65
19676;BME280;39539;52.202;9.876;2023-02-14T13:20:53;102393.03;;;11.02;85.21
19676;BME280;39539;52.202;9.876;2023-02-14T13:26:17;102386.53;;;11.13;85.79
19676;BME280;39539;52.202;9.876;2023-02-14T13:29:10;102380.69;;;11.09;87.10
19676;BME280;39539;52.202;9.876;2023-02-14T13:31:38;102378.38;;;11.06;87.47
19676;BME280;39539;52.202;9.876;2023-02-14T13:34:29;102373.41;;;11.03;87.67
19676;BME280;39539;52.202;9.876;2023-02-14T13:36:59;102368.91;;;10.95;89.18
19676;BME280;39539;52.202;9.876;2023-02-14T13:39:33;102365.41;;;10.95;89.01
19676;BME280;39539;52.202;9.876;2023-02-14T13:42:00;102352.78;;;10.97;89.05
19676;BME280;39539;52.202;9.876;2023-02-14T13:47:05;102356.75;;;11.01;84.61
19676;BME280;39539;52.202;9.876;2023-02-14T13:49:33;102356.09;;;11.07;84.92
19676;BME280;39539;52.202;9.876;2023-02-14T13:52:03;102349.78;;;11.08;83.11
19676;BME280;39539;52.202;9.876;2023-02-14T13:54:47;102347.94;;;11.09;83.65
19676;BME280;39539;52.202;9.876;2023-02-14T13:57:33;102339.44;;;11.21;83.47
19676;BME280;39539;52.202;9.876;2023-02-14T14:02:54;102331.97;;;11.17;88.43
19676;BME280;39539;52.202;9.876;2023-02-14T14:10:48;102324.53;;;11.04;92.18
19676;BME280;39539;52.202;9.876;2023-02-14T14:22:03;102341.81;;;11.00;88.40
19676;BME280;39539;52.202;9.876;2023-02-14T14:24:37;102340.63;;;11.02;87.54
19676;BME280;39539;52.202;9.876;2023-02-14T14:27:13;102345.13;;;11.02;87.15
19676;BME280;39539;52.202;9.876;2023-02-14T14:29:45;102316.53;;;11.04;82.72
19676;BME280;39539;52.202;9.876;2023-02-14T14:32:19;102332.16;;;11.07;82.42
19676;BME280;39539;52.202;9.876;2023-02-14T14:37:33;102321.97;;;11.27;83.91
19676;BME280;39539;52.202;9.876;2023-02-14T14:40:03;102317.47;;;11.28;78.38
19676;BME280;39539;52.202;9.876;2023-02-14T14:42:33;102318.44;;;11.35;76.54
19676;BME280;39539;52.202;9.876;2023-02-14T14:45:04;102315.91;;;11.50;74.09
19676;BME280;39539;52.202;9.876;2023-02-14T14:47:43;102306.91;;;11.51;74.62
19676;BME280;39539;52.202;9.876;2023-02-14T14:50:15;102301.41;;;11.52;74.08
19676;BME280;39539;52.202;9.876;2023-02-14T14:52:44;102295.44;;;11.50;75.01
19676;BME280;39539;52.202;9.876;2023-02-14T14:57:52;102282.50;;;11.39;72.04
19676;BME280;39539;52.202;9.876;2023-02-14T15:03:06;102282.63;;;11.45;71.99
19676;BME280;39539;52.202;9.876;2023-02-14T15:05:38;102275.66;;;11.44;72.10
19676;BME280;39539;52.202;9.876;2023-02-14T15:11:11;102273.16;;;11.43;72.38
19676;BME280;39539;52.202;9.876;2023-02-14T15:13:45;102264.84;;;11.38;72.35
19676;BME280;39539;52.202;9.876;2023-02-14T15:16:26;102268.84;;;11.34;72.66
19676;BME280;39539;52.202;9.876;2023-02-14T15:18:59;102258.25;;;11.26;72.92
19676;BME280;39539;52.202;9.876;2023-02-14T15:21:31;102259.94;;;11.18;73.41